sensor_id;sensor_type;location;lat;lon;timestamp;P1;durP1;ratioP1;P2;durP2;ratioP2
55290;SDS011;41155;39.768;2.712;2023-05-03T00:01:18;9.80;;;5.72;;
55290;SDS011;41155;39.768;2.712;2023-05-03T00:03:44;15.13;;;5.30;;
55290;SDS011;41155;39.768;2.712;2023-05-03T00:06:13;10.25;;;6.32;;
55290;SDS011;41155;39.768;2.712;2023-05-03T00:08:40;11.30;;;5.63;;
55290;SDS011;41155;39.768;2.712;2023-05-03T00:11:08;8.73;;;5.57;;
55290;SDS011;41155;39.768;2.712;2023-05-03T00:13:34;8.00;;;5.30;;
55290;SDS011;41155;39.768;2.712;2023-05-03T00:16:00;10.88;;;5.20;;
55290;SDS011;41155;39.768;2.712;2023-05-03T00:18:26;16.85;;;5.20;;
55290;SDS011;41155;39.768;2.712;2023-05-03T00:20:51;17.02;;;5.82;;
55290;SDS011;41155;39.768;2.712;2023-05-03T00:23:18;9.25;;;5.22;;
55290;SDS011;41155;39.768;2.712;2023-05-03T00:25:44;12.70;;;5.35;;
55290;SDS011;41155;39.768;2.712;2023-05-03T00:28:09;7.93;;;5.63;;
55290;SDS011;41155;39.768;2.712;2023-05-03T00:30:35;8.57;;;5.13;;
55290;SDS011;41155;39.768;2.712;2023-05-03T00:33:00;9.55;;;5.20;;
55290;SDS011;41155;39.768;2.712;2023-05-03T00:35:26;14.43;;;5.88;;
55290;SDS011;41155;39.768;2.712;2023-05-03T00:37:52;7.20;;;5.10;;
55290;SDS011;41155;39.768;2.712;2023-05-03T00:40:17;8.85;;;5.18;;
55290;SDS011;41155;39.768;2.712;2023-05-03T00:42:43;10.20;;;5.50;;
55290;SDS011;41155;39.768;2.712;2023-05-03T00:45:10;16.27;;;5.65;;
55290;SDS011;41155;39.768;2.712;2023-05-03T00:47:36;9.15;;;4.65;;
55290;SDS011;41155;39.768;2.712;2023-05-03T00:50:02;14.65;;;5.18;;
55290;SDS011;41155;39.768;2.712;2023-05-03T00:52:28;6.40;;;4.82;;
55290;SDS011;41155;39.768;2.712;2023-05-03T00:54:57;9.90;;;5.50;;
55290;SDS011;41155;39.768;2.712;2023-05-03T00:57:24;10.23;;;5.63;;
55290;SDS011;41155;39.768;2.712;2023-05-03T00:59:51;11.77;;;5.03;;
55290;SDS011;41155;39.768;2.712;2023-05-03T01:02:17;10.98;;;4.70;;
55290;SDS011;41155;39.768;2.712;2023-05-03T01:04:43;4.93;;;4.25;;
55290;SDS011;41155;39.768;2.712;2023-05-03T01:18:30;11.98;;;4.68;;
55290;SDS011;41155;39.768;2.712;2023-05-03T01:21:03;4.47;;;4.15;;
55290;SDS011;41155;39.768;2.712;2023-05-03T01:23:35;5.18;;;4.68;;
55290;SDS011;41155;39.768;2.712;2023-05-03T01:28:45;5.03;;;4.53;;
55290;SDS011;41155;39.768;2.712;2023-05-03T01:31:11;7.18;;;4.70;;
55290;SDS011;41155;39.768;2.712;2023-05-03T01:36:34;7.25;;;4.78;;
55290;SDS011;41155;39.768;2.712;2023-05-03T01:39:08;7.97;;;4.70;;
55290;SDS011;41155;39.768;2.712;2023-05-03T01:41:39;10.25;;;4.35;;
55290;SDS011;41155;39.768;2.712;2023-05-03T01:44:07;7.63;;;5.03;;
55290;SDS011;41155;39.768;2.712;2023-05-03T01:46:40;7.03;;;5.53;;
55290;SDS011;41155;39.768;2.712;2023-05-03T01:49:07;8.82;;;5.30;;
55290;SDS011;41155;39.768;2.712;2023-05-03T01:51:32;8.07;;;5.57;;
55290;SDS011;41155;39.768;2.712;2023-05-03T01:53:58;6.35;;;5.53;;
55290;SDS011;41155;39.768;2.712;2023-05-03T01:56:23;12.88;;;5.38;;
55290;SDS011;41155;39.768;2.712;2023-05-03T01:58:49;8.75;;;5.38;;
55290;SDS011;41155;39.768;2.712;2023-05-03T02:01:14;9.32;;;4.65;;
55290;SDS011;41155;39.768;2.712;2023-05-03T02:03:39;16.98;;;5.47;;
55290;SDS011;41155;39.768;2.712;2023-05-03T02:06:05;11.45;;;5.22;;
55290;SDS011;41155;39.768;2.712;2023-05-03T02:08:30;5.35;;;4.40;;
55290;SDS011;41155;39.768;2.712;2023-05-03T02:10:56;23.73;;;5.10;;
55290;SDS011;41155;39.768;2.712;2023-05-03T02:13:21;10.32;;;5.15;;
55290;SDS011;41155;39.768;2.712;2023-05-03T02:15:47;8.18;;;4.97;;
55290;SDS011;41155;39.768;2.712;2023-05-03T02:18:12;15.85;;;6.00;;
55290;SDS011;41155;39.768;2.712;2023-05-03T02:20:43;9.43;;;5.18;;
55290;SDS011;41155;39.768;2.712;2023-05-03T02:23:09;6.85;;;5.25;;
55290;SDS011;41155;39.768;2.712;2023-05-03T02:25:34;6.95;;;4.90;;
55290;SDS011;41155;39.768;2.712;2023-05-03T02:28:00;6.72;;;5.15;;
55290;SDS011;41155;39.768;2.712;2023-05-03T02:30:25;6.90;;;5.13;;
55290;SDS011;41155;39.768;2.712;2023-05-03T02:32:51;9.13;;;5.28;;
55290;SDS011;41155;39.768;2.712;2023-05-03T02:35:16;11.27;;;5.10;;
55290;SDS011;41155;39.768;2.712;2023-05-03T02:37:42;5.30;;;4.75;;
55290;SDS011;41155;39.768;2.712;2023-05-03T02:40:07;17.35;;;5.60;;
55290;SDS011;41155;39.768;2.712;2023-05-03T02:42:36;11.30;;;5.43;;
55290;SDS011;41155;39.768;2.712;2023-05-03T02:45:02;9.35;;;4.85;;
55290;SDS011;41155;39.768;2.712;2023-05-03T02:47:28;12.25;;;4.80;;
55290;SDS011;41155;39.768;2.712;2023-05-03T02:49:54;9.30;;;5.60;;
55290;SDS011;41155;39.768;2.712;2023-05-03T02:52:20;5.90;;;4.80;;
55290;SDS011;41155;39.768;2.712;2023-05-03T02:54:45;6.05;;;4.60;;
55290;SDS011;41155;39.768;2.712;2023-05-03T02:57:13;10.75;;;5.53;;
55290;SDS011;41155;39.768;2.712;2023-05-03T02:59:39;7.78;;;5.20;;
55290;SDS011;41155;39.768;2.712;2023-05-03T03:02:05;7.60;;;5.28;;
55290;SDS011;41155;39.768;2.712;2023-05-03T03:04:31;7.93;;;4.85;;
55290;SDS011;41155;39.768;2.712;2023-05-03T03:06:56;6.03;;;4.97;;
55290;SDS011;41155;39.768;2.712;2023-05-03T03:09:22;11.25;;;5.05;;
55290;SDS011;41155;39.768;2.712;2023-05-03T03:11:49;12.70;;;4.82;;
55290;SDS011;41155;39.768;2.712;2023-05-03T03:14:16;6.78;;;5.32;;
55290;SDS011;41155;39.768;2.712;2023-05-03T03:16:41;6.20;;;4.90;;
55290;SDS011;41155;39.768;2.712;2023-05-03T03:19:07;7.53;;;5.20;;
55290;SDS011;41155;39.768;2.712;2023-05-03T03:21:32;12.25;;;5.45;;
55290;SDS011;41155;39.768;2.712;2023-05-03T03:24:00;12.43;;;5.93;;
55290;SDS011;41155;39.768;2.712;2023-05-03T03:26:25;6.80;;;4.85;;
55290;SDS011;41155;39.768;2.712;2023-05-03T03:28:51;6.25;;;5.22;;
55290;SDS011;41155;39.768;2.712;2023-05-03T03:31:16;6.72;;;5.20;;
55290;SDS011;41155;39.768;2.712;2023-05-03T03:33:42;5.10;;;4.70;;
55290;SDS011;41155;39.768;2.712;2023-05-03T03:36:07;9.40;;;5.13;;
55290;SDS011;41155;39.768;2.712;2023-05-03T03:38:34;22.02;;;5.53;;
55290;SDS011;41155;39.768;2.712;2023-05-03T03:41:00;5.93;;;5.07;;
55290;SDS011;41155;39.768;2.712;2023-05-03T03:43:25;7.90;;;5.07;;
55290;SDS011;41155;39.768;2.712;2023-05-03T03:45:51;10.48;;;4.72;;
55290;SDS011;41155;39.768;2.712;2023-05-03T03:48:16;6.47;;;5.00;;
55290;SDS011;41155;39.768;2.712;2023-05-03T03:50:42;9.02;;;5.00;;
55290;SDS011;41155;39.768;2.712;2023-05-03T03:53:08;12.45;;;6.20;;
55290;SDS011;41155;39.768;2.712;2023-05-03T03:55:35;8.75;;;5.40;;
55290;SDS011;41155;39.768;2.712;2023-05-03T03:58:00;12.80;;;6.43;;
55290;SDS011;41155;39.768;2.712;2023-05-03T04:00:26;6.22;;;5.32;;
55290;SDS011;41155;39.768;2.712;2023-05-03T04:02:52;7.13;;;5.22;;
55290;SDS011;41155;39.768;2.712;2023-05-03T04:05:17;8.43;;;5.18;;
55290;SDS011;41155;39.768;2.712;2023-05-03T04:07:43;8.48;;;5.32;;
55290;SDS011;41155;39.768;2.712;2023-05-03T04:10:08;13.13;;;5.80;;
55290;SDS011;41155;39.768;2.712;2023-05-03T04:12:34;9.80;;;5.75;;
55290;SDS011;41155;39.768;2.712;2023-05-03T04:14:59;10.52;;;5.70;;
55290;SDS011;41155;39.768;2.712;2023-05-03T04:17:25;8.00;;;5.55;;
55290;SDS011;41155;39.768;2.712;2023-05-03T04:19:50;9.27;;;5.90;;
55290;SDS011;41155;39.768;2.712;2023-05-03T04:22:16;15.85;;;6.38;;
55290;SDS011;41155;39.768;2.712;2023-05-03T04:24:42;11.88;;;5.43;;
55290;SDS011;41155;39.768;2.712;2023-05-03T04:27:07;13.90;;;6.07;;
55290;SDS011;41155;39.768;2.712;2023-05-03T04:29:33;9.65;;;5.72;;
55290;SDS011;41155;39.768;2.712;2023-05-03T04:31:58;14.30;;;6.97;;
55290;SDS011;41155;39.768;2.712;2023-05-03T04:34:26;10.40;;;6.65;;
55290;SDS011;41155;39.768;2.712;2023-05-03T04:36:55;9.25;;;6.38;;
55290;SDS011;41155;39.768;2.712;2023-05-03T04:39:20;12.15;;;5.80;;
55290;SDS011;41155;39.768;2.712;2023-05-03T04:41:47;9.98;;;6.05;;
55290;SDS011;41155;39.768;2.712;2023-05-03T04:44:12;12.32;;;5.93;;
55290;SDS011;41155;39.768;2.712;2023-05-03T04:46:38;12.27;;;5.78;;
55290;SDS011;41155;39.768;2.712;2023-05-03T04:49:04;24.40;;;5.72;;
55290;SDS011;41155;39.768;2.712;2023-05-03T04:51:30;15.48;;;5.75;;
55290;SDS011;41155;39.768;2.712;2023-05-03T04:53:57;10.25;;;5.55;;
55290;SDS011;41155;39.768;2.712;2023-05-03T04:56:23;11.18;;;5.72;;
55290;SDS011;41155;39.768;2.712;2023-05-03T04:58:53;12.00;;;5.53;;
55290;SDS011;41155;39.768;2.712;2023-05-03T05:01:18;19.08;;;7.20;;
55290;SDS011;41155;39.768;2.712;2023-05-03T05:03:45;12.93;;;6.63;;
55290;SDS011;41155;39.768;2.712;2023-05-03T05:06:11;12.23;;;6.35;;
55290;SDS011;41155;39.768;2.712;2023-05-03T05:08:37;19.33;;;7.40;;
55290;SDS011;41155;39.768;2.712;2023-05-03T05:11:02;12.40;;;6.30;;
55290;SDS011;41155;39.768;2.712;2023-05-03T05:13:29;11.13;;;6.18;;
55290;SDS011;41155;39.768;2.712;2023-05-03T05:15:54;12.07;;;6.32;;
55290;SDS011;41155;39.768;2.712;2023-05-03T05:18:20;10.90;;;5.80;;
55290;SDS011;41155;39.768;2.712;2023-05-03T05:20:45;10.13;;;6.20;;
55290;SDS011;41155;39.768;2.712;2023-05-03T05:23:11;18.60;;;6.07;;
55290;SDS011;41155;39.768;2.712;2023-05-03T05:25:36;16.30;;;6.38;;
55290;SDS011;41155;39.768;2.712;2023-05-03T05:28:02;16.00;;;6.55;;
55290;SDS011;41155;39.768;2.712;2023-05-03T05:30:27;19.85;;;6.70;;
55290;SDS011;41155;39.768;2.712;2023-05-03T05:32:53;14.88;;;6.40;;
55290;SDS011;41155;39.768;2.712;2023-05-03T05:35:18;24.92;;;7.68;;
55290;SDS011;41155;39.768;2.712;2023-05-03T05:37:44;20.45;;;7.53;;
55290;SDS011;41155;39.768;2.712;2023-05-03T05:40:09;22.67;;;6.80;;
55290;SDS011;41155;39.768;2.712;2023-05-03T05:42:36;26.60;;;7.13;;
55290;SDS011;41155;39.768;2.712;2023-05-03T05:45:02;28.20;;;7.75;;
55290;SDS011;41155;39.768;2.712;2023-05-03T05:47:28;15.60;;;7.70;;
55290;SDS011;41155;39.768;2.712;2023-05-03T05:49:53;26.83;;;9.30;;
55290;SDS011;41155;39.768;2.712;2023-05-03T05:52:19;34.30;;;11.65;;
55290;SDS011;41155;39.768;2.712;2023-05-03T05:54:44;23.42;;;12.75;;
55290;SDS011;41155;39.768;2.712;2023-05-03T05:57:10;22.77;;;10.27;;
55290;SDS011;41155;39.768;2.712;2023-05-03T05:59:36;26.35;;;9.07;;
55290;SDS011;41155;39.768;2.712;2023-05-03T06:02:02;30.98;;;10.05;;
55290;SDS011;41155;39.768;2.712;2023-05-03T06:04:28;23.33;;;8.27;;
55290;SDS011;41155;39.768;2.712;2023-05-03T06:06:53;39.67;;;18.05;;
55290;SDS011;41155;39.768;2.712;2023-05-03T06:09:22;25.48;;;14.38;;
55290;SDS011;41155;39.768;2.712;2023-05-03T06:11:47;27.38;;;16.42;;
55290;SDS011;41155;39.768;2.712;2023-05-03T06:14:13;29.25;;;16.05;;
55290;SDS011;41155;39.768;2.712;2023-05-03T06:16:39;42.50;;;16.63;;
55290;SDS011;41155;39.768;2.712;2023-05-03T06:19:05;52.03;;;16.83;;
55290;SDS011;41155;39.768;2.712;2023-05-03T06:21:30;32.55;;;14.13;;
55290;SDS011;41155;39.768;2.712;2023-05-03T06:23:56;23.17;;;11.48;;
55290;SDS011;41155;39.768;2.712;2023-05-03T06:26:22;27.98;;;11.55;;
55290;SDS011;41155;39.768;2.712;2023-05-03T06:28:47;16.13;;;9.65;;
55290;SDS011;41155;39.768;2.712;2023-05-03T06:31:14;22.75;;;9.85;;
55290;SDS011;41155;39.768;2.712;2023-05-03T06:33:40;18.48;;;8.75;;
55290;SDS011;41155;39.768;2.712;2023-05-03T06:36:05;14.65;;;8.02;;
55290;SDS011;41155;39.768;2.712;2023-05-03T06:38:32;30.65;;;9.10;;
55290;SDS011;41155;39.768;2.712;2023-05-03T06:40:58;33.15;;;8.07;;
55290;SDS011;41155;39.768;2.712;2023-05-03T06:43:23;17.45;;;7.15;;
55290;SDS011;41155;39.768;2.712;2023-05-03T06:45:50;29.83;;;6.45;;
55290;SDS011;41155;39.768;2.712;2023-05-03T06:48:17;30.13;;;7.82;;
55290;SDS011;41155;39.768;2.712;2023-05-03T06:50:42;22.40;;;6.63;;
55290;SDS011;41155;39.768;2.712;2023-05-03T06:53:08;18.23;;;6.95;;
55290;SDS011;41155;39.768;2.712;2023-05-03T06:55:34;24.42;;;6.88;;
55290;SDS011;41155;39.768;2.712;2023-05-03T06:57:59;20.67;;;8.00;;
55290;SDS011;41155;39.768;2.712;2023-05-03T07:00:24;22.38;;;7.65;;
55290;SDS011;41155;39.768;2.712;2023-05-03T07:02:50;13.70;;;7.05;;
55290;SDS011;41155;39.768;2.712;2023-05-03T07:05:15;10.73;;;6.07;;
55290;SDS011;41155;39.768;2.712;2023-05-03T07:07:41;14.20;;;5.82;;
55290;SDS011;41155;39.768;2.712;2023-05-03T07:10:07;10.82;;;5.70;;
55290;SDS011;41155;39.768;2.712;2023-05-03T07:12:32;31.52;;;5.97;;
55290;SDS011;41155;39.768;2.712;2023-05-03T07:14:58;35.88;;;6.88;;
55290;SDS011;41155;39.768;2.712;2023-05-03T07:17:24;26.05;;;6.28;;
55290;SDS011;41155;39.768;2.712;2023-05-03T07:19:50;16.17;;;6.53;;
55290;SDS011;41155;39.768;2.712;2023-05-03T07:22:16;17.67;;;6.22;;
55290;SDS011;41155;39.768;2.712;2023-05-03T07:24:42;18.20;;;7.30;;
55290;SDS011;41155;39.768;2.712;2023-05-03T07:27:08;17.10;;;8.25;;
55290;SDS011;41155;39.768;2.712;2023-05-03T07:29:34;23.67;;;7.63;;
55290;SDS011;41155;39.768;2.712;2023-05-03T07:31:59;14.73;;;5.85;;
55290;SDS011;41155;39.768;2.712;2023-05-03T07:34:25;8.48;;;4.47;;
55290;SDS011;41155;39.768;2.712;2023-05-03T07:36:51;11.98;;;3.88;;
55290;SDS011;41155;39.768;2.712;2023-05-03T07:39:16;13.82;;;5.00;;
55290;SDS011;41155;39.768;2.712;2023-05-03T07:41:45;8.40;;;5.30;;
55290;SDS011;41155;39.768;2.712;2023-05-03T07:44:11;13.52;;;5.07;;
55290;SDS011;41155;39.768;2.712;2023-05-03T07:46:36;18.55;;;5.70;;
55290;SDS011;41155;39.768;2.712;2023-05-03T07:49:04;14.68;;;4.97;;
55290;SDS011;41155;39.768;2.712;2023-05-03T07:51:36;15.13;;;4.75;;
55290;SDS011;41155;39.768;2.712;2023-05-03T07:54:03;16.40;;;4.00;;
55290;SDS011;41155;39.768;2.712;2023-05-03T07:56:29;9.05;;;4.35;;
55290;SDS011;41155;39.768;2.712;2023-05-03T07:58:55;14.52;;;4.40;;
55290;SDS011;41155;39.768;2.712;2023-05-03T08:01:21;13.57;;;3.78;;
55290;SDS011;41155;39.768;2.712;2023-05-03T08:03:47;9.77;;;4.13;;
55290;SDS011;41155;39.768;2.712;2023-05-03T08:06:15;9.45;;;3.60;;
55290;SDS011;41155;39.768;2.712;2023-05-03T08:08:41;11.80;;;4.22;;
55290;SDS011;41155;39.768;2.712;2023-05-03T08:11:07;10.63;;;3.55;;
55290;SDS011;41155;39.768;2.712;2023-05-03T08:13:33;9.60;;;3.65;;
55290;SDS011;41155;39.768;2.712;2023-05-03T08:15:58;10.43;;;4.22;;
55290;SDS011;41155;39.768;2.712;2023-05-03T08:18:23;12.48;;;6.70;;
55290;SDS011;41155;39.768;2.712;2023-05-03T08:20:49;19.38;;;7.05;;
55290;SDS011;41155;39.768;2.712;2023-05-03T08:23:15;15.05;;;6.47;;
55290;SDS011;41155;39.768;2.712;2023-05-03T08:25:40;14.18;;;5.20;;
55290;SDS011;41155;39.768;2.712;2023-05-03T08:28:06;15.73;;;6.53;;
55290;SDS011;41155;39.768;2.712;2023-05-03T08:30:32;12.48;;;4.82;;
55290;SDS011;41155;39.768;2.712;2023-05-03T08:32:58;13.55;;;4.40;;
55290;SDS011;41155;39.768;2.712;2023-05-03T08:35:24;15.43;;;4.97;;
55290;SDS011;41155;39.768;2.712;2023-05-03T08:37:52;10.95;;;4.47;;
55290;SDS011;41155;39.768;2.712;2023-05-03T08:40:19;9.30;;;4.35;;
55290;SDS011;41155;39.768;2.712;2023-05-03T08:42:46;17.63;;;4.75;;
55290;SDS011;41155;39.768;2.712;2023-05-03T08:45:12;5.32;;;3.85;;
55290;SDS011;41155;39.768;2.712;2023-05-03T08:47:40;8.52;;;3.17;;
55290;SDS011;41155;39.768;2.712;2023-05-03T08:50:08;14.32;;;3.90;;
55290;SDS011;41155;39.768;2.712;2023-05-03T08:52:38;10.65;;;3.75;;
55290;SDS011;41155;39.768;2.712;2023-05-03T08:55:06;6.97;;;3.25;;
55290;SDS011;41155;39.768;2.712;2023-05-03T08:57:32;8.90;;;4.05;;
55290;SDS011;41155;39.768;2.712;2023-05-03T08:59:59;8.75;;;3.72;;
55290;SDS011;41155;39.768;2.712;2023-05-03T09:02:26;9.90;;;3.22;;
55290;SDS011;41155;39.768;2.712;2023-05-03T09:04:54;9.98;;;4.38;;
55290;SDS011;41155;39.768;2.712;2023-05-03T09:07:20;18.98;;;3.60;;
55290;SDS011;41155;39.768;2.712;2023-05-03T09:09:46;10.63;;;4.00;;
55290;SDS011;41155;39.768;2.712;2023-05-03T09:12:11;17.45;;;5.28;;
55290;SDS011;41155;39.768;2.712;2023-05-03T09:14:56;8.25;;;3.92;;
55290;SDS011;41155;39.768;2.712;2023-05-03T09:17:22;5.85;;;3.63;;
55290;SDS011;41155;39.768;2.712;2023-05-03T09:19:51;15.25;;;3.88;;
55290;SDS011;41155;39.768;2.712;2023-05-03T09:22:30;4.85;;;3.53;;
55290;SDS011;41155;39.768;2.712;2023-05-03T09:24:57;13.02;;;3.22;;
55290;SDS011;41155;39.768;2.712;2023-05-03T09:27:24;12.43;;;3.05;;
55290;SDS011;41155;39.768;2.712;2023-05-03T09:29:51;18.42;;;3.60;;
55290;SDS011;41155;39.768;2.712;2023-05-03T09:32:17;9.32;;;3.50;;
55290;SDS011;41155;39.768;2.712;2023-05-03T09:34:44;14.73;;;3.50;;
55290;SDS011;41155;39.768;2.712;2023-05-03T09:37:13;8.20;;;2.90;;
55290;SDS011;41155;39.768;2.712;2023-05-03T09:39:42;7.68;;;3.05;;
55290;SDS011;41155;39.768;2.712;2023-05-03T09:42:10;8.52;;;3.05;;
55290;SDS011;41155;39.768;2.712;2023-05-03T09:44:39;3.80;;;2.65;;
55290;SDS011;41155;39.768;2.712;2023-05-03T09:47:18;11.77;;;3.03;;
55290;SDS011;41155;39.768;2.712;2023-05-03T09:49:45;14.02;;;2.95;;
55290;SDS011;41155;39.768;2.712;2023-05-03T09:52:11;11.55;;;3.08;;
55290;SDS011;41155;39.768;2.712;2023-05-03T09:54:37;7.43;;;3.25;;
55290;SDS011;41155;39.768;2.712;2023-05-03T09:57:03;17.70;;;4.00;;
55290;SDS011;41155;39.768;2.712;2023-05-03T09:59:31;6.63;;;2.95;;
55290;SDS011;41155;39.768;2.712;2023-05-03T10:01:59;8.02;;;3.42;;
55290;SDS011;41155;39.768;2.712;2023-05-03T10:04:28;5.20;;;2.70;;
55290;SDS011;41155;39.768;2.712;2023-05-03T10:07:03;8.93;;;3.55;;
55290;SDS011;41155;39.768;2.712;2023-05-03T10:09:42;15.27;;;3.80;;
55290;SDS011;41155;39.768;2.712;2023-05-03T10:12:10;10.13;;;3.30;;
55290;SDS011;41155;39.768;2.712;2023-05-03T10:14:39;9.80;;;3.33;;
55290;SDS011;41155;39.768;2.712;2023-05-03T10:17:18;8.30;;;3.42;;
55290;SDS011;41155;39.768;2.712;2023-05-03T10:22:25;6.10;;;2.72;;
55290;SDS011;41155;39.768;2.712;2023-05-03T10:27:49;7.60;;;3.38;;
55290;SDS011;41155;39.768;2.712;2023-05-03T10:32:50;14.35;;;3.20;;
55290;SDS011;41155;39.768;2.712;2023-05-03T10:35:15;10.95;;;5.90;;
55290;SDS011;41155;39.768;2.712;2023-05-03T10:37:43;10.73;;;3.50;;
55290;SDS011;41155;39.768;2.712;2023-05-03T10:42:57;14.02;;;4.03;;
55290;SDS011;41155;39.768;2.712;2023-05-03T10:45:25;7.38;;;3.47;;
55290;SDS011;41155;39.768;2.712;2023-05-03T10:50:39;3.83;;;2.78;;
55290;SDS011;41155;39.768;2.712;2023-05-03T10:53:07;16.48;;;4.45;;
55290;SDS011;41155;39.768;2.712;2023-05-03T10:56:05;11.77;;;3.55;;
55290;SDS011;41155;39.768;2.712;2023-05-03T10:58:50;17.77;;;5.32;;
55290;SDS011;41155;39.768;2.712;2023-05-03T11:01:20;20.98;;;7.38;;
55290;SDS011;41155;39.768;2.712;2023-05-03T11:03:55;48.90;;;20.17;;
55290;SDS011;41155;39.768;2.712;2023-05-03T11:06:38;24.70;;;7.10;;
55290;SDS011;41155;39.768;2.712;2023-05-03T11:09:07;39.65;;;13.23;;
55290;SDS011;41155;39.768;2.712;2023-05-03T11:11:35;31.65;;;15.13;;
55290;SDS011;41155;39.768;2.712;2023-05-03T11:14:02;25.35;;;11.25;;
55290;SDS011;41155;39.768;2.712;2023-05-03T11:16:28;20.20;;;9.38;;
55290;SDS011;41155;39.768;2.712;2023-05-03T11:18:53;14.10;;;6.70;;
55290;SDS011;41155;39.768;2.712;2023-05-03T11:21:20;17.23;;;6.93;;
55290;SDS011;41155;39.768;2.712;2023-05-03T11:23:46;10.43;;;6.18;;
55290;SDS011;41155;39.768;2.712;2023-05-03T11:26:12;19.35;;;8.40;;
55290;SDS011;41155;39.768;2.712;2023-05-03T11:28:42;10.90;;;4.65;;
55290;SDS011;41155;39.768;2.712;2023-05-03T11:31:09;14.68;;;6.80;;
55290;SDS011;41155;39.768;2.712;2023-05-03T11:33:36;14.23;;;7.22;;
55290;SDS011;41155;39.768;2.712;2023-05-03T11:36:02;11.25;;;5.00;;
55290;SDS011;41155;39.768;2.712;2023-05-03T11:38:30;14.45;;;5.20;;
55290;SDS011;41155;39.768;2.712;2023-05-03T11:40:57;18.30;;;5.53;;
55290;SDS011;41155;39.768;2.712;2023-05-03T11:43:24;10.68;;;4.25;;
55290;SDS011;41155;39.768;2.712;2023-05-03T11:45:50;12.80;;;4.10;;
55290;SDS011;41155;39.768;2.712;2023-05-03T11:48:20;11.32;;;4.13;;
55290;SDS011;41155;39.768;2.712;2023-05-03T11:50:49;12.88;;;3.35;;
55290;SDS011;41155;39.768;2.712;2023-05-03T11:53:19;8.45;;;3.83;;
55290;SDS011;41155;39.768;2.712;2023-05-03T11:55:46;9.82;;;3.85;;
55290;SDS011;41155;39.768;2.712;2023-05-03T11:58:14;5.13;;;2.92;;
55290;SDS011;41155;39.768;2.712;2023-05-03T12:00:45;18.33;;;4.07;;
55290;SDS011;41155;39.768;2.712;2023-05-03T12:03:24;7.28;;;3.20;;
55290;SDS011;41155;39.768;2.712;2023-05-03T12:05:52;7.60;;;3.00;;
55290;SDS011;41155;39.768;2.712;2023-05-03T12:08:18;9.02;;;3.72;;
55290;SDS011;41155;39.768;2.712;2023-05-03T12:10:45;13.35;;;4.15;;
55290;SDS011;41155;39.768;2.712;2023-05-03T12:13:11;12.05;;;3.97;;
55290;SDS011;41155;39.768;2.712;2023-05-03T12:15:37;14.63;;;3.83;;
55290;SDS011;41155;39.768;2.712;2023-05-03T12:18:07;14.38;;;3.95;;
55290;SDS011;41155;39.768;2.712;2023-05-03T12:20:34;6.25;;;3.08;;
55290;SDS011;41155;39.768;2.712;2023-05-03T12:23:04;12.40;;;3.50;;
55290;SDS011;41155;39.768;2.712;2023-05-03T12:28:01;10.88;;;3.08;;
55290;SDS011;41155;39.768;2.712;2023-05-03T12:30:28;8.25;;;3.70;;
55290;SDS011;41155;39.768;2.712;2023-05-03T12:32:53;11.40;;;4.25;;
55290;SDS011;41155;39.768;2.712;2023-05-03T12:35:19;6.45;;;3.53;;
55290;SDS011;41155;39.768;2.712;2023-05-03T12:37:46;7.97;;;3.72;;
55290;SDS011;41155;39.768;2.712;2023-05-03T12:40:13;8.48;;;3.63;;
55290;SDS011;41155;39.768;2.712;2023-05-03T12:42:40;15.43;;;4.22;;
55290;SDS011;41155;39.768;2.712;2023-05-03T12:45:06;13.88;;;4.15;;
55290;SDS011;41155;39.768;2.712;2023-05-03T12:47:32;10.68;;;3.67;;
55290;SDS011;41155;39.768;2.712;2023-05-03T12:49:58;7.35;;;3.95;;
55290;SDS011;41155;39.768;2.712;2023-05-03T12:52:24;12.93;;;4.38;;
55290;SDS011;41155;39.768;2.712;2023-05-03T12:54:50;8.02;;;4.47;;
55290;SDS011;41155;39.768;2.712;2023-05-03T12:57:16;7.63;;;3.15;;
55290;SDS011;41155;39.768;2.712;2023-05-03T12:59:42;11.48;;;3.92;;
55290;SDS011;41155;39.768;2.712;2023-05-03T13:02:11;7.93;;;3.00;;
55290;SDS011;41155;39.768;2.712;2023-05-03T13:04:37;13.05;;;4.07;;
55290;SDS011;41155;39.768;2.712;2023-05-03T13:07:03;6.50;;;2.85;;
55290;SDS011;41155;39.768;2.712;2023-05-03T13:09:29;7.30;;;3.17;;
55290;SDS011;41155;39.768;2.712;2023-05-03T13:11:55;13.98;;;3.60;;
55290;SDS011;41155;39.768;2.712;2023-05-03T13:14:21;6.35;;;2.45;;
55290;SDS011;41155;39.768;2.712;2023-05-03T13:16:47;6.30;;;3.47;;
55290;SDS011;41155;39.768;2.712;2023-05-03T13:19:13;4.97;;;2.88;;
55290;SDS011;41155;39.768;2.712;2023-05-03T13:21:40;6.00;;;3.90;;
55290;SDS011;41155;39.768;2.712;2023-05-03T13:24:06;5.25;;;3.00;;
55290;SDS011;41155;39.768;2.712;2023-05-03T13:26:31;16.10;;;3.17;;
55290;SDS011;41155;39.768;2.712;2023-05-03T13:29:00;9.00;;;3.63;;
55290;SDS011;41155;39.768;2.712;2023-05-03T13:31:25;7.85;;;3.20;;
55290;SDS011;41155;39.768;2.712;2023-05-03T13:33:52;6.72;;;3.05;;
55290;SDS011;41155;39.768;2.712;2023-05-03T13:36:24;8.60;;;3.15;;
55290;SDS011;41155;39.768;2.712;2023-05-03T13:38:51;12.65;;;3.05;;
55290;SDS011;41155;39.768;2.712;2023-05-03T13:41:18;11.93;;;3.10;;
55290;SDS011;41155;39.768;2.712;2023-05-03T13:43:44;12.18;;;3.60;;
55290;SDS011;41155;39.768;2.712;2023-05-03T13:46:09;9.60;;;3.97;;
55290;SDS011;41155;39.768;2.712;2023-05-03T13:48:35;7.82;;;3.22;;
55290;SDS011;41155;39.768;2.712;2023-05-03T13:51:10;8.35;;;2.88;;
55290;SDS011;41155;39.768;2.712;2023-05-03T13:53:40;15.60;;;3.85;;
55290;SDS011;41155;39.768;2.712;2023-05-03T13:56:05;4.10;;;3.30;;
55290;SDS011;41155;39.768;2.712;2023-05-03T13:58:31;5.18;;;2.92;;
55290;SDS011;41155;39.768;2.712;2023-05-03T14:00:59;33.97;;;25.02;;
55290;SDS011;41155;39.768;2.712;2023-05-03T14:03:25;10.50;;;3.20;;
55290;SDS011;41155;39.768;2.712;2023-05-03T14:05:50;15.00;;;3.42;;
55290;SDS011;41155;39.768;2.712;2023-05-03T14:08:16;6.25;;;3.30;;
55290;SDS011;41155;39.768;2.712;2023-05-03T14:10:42;14.90;;;4.78;;
55290;SDS011;41155;39.768;2.712;2023-05-03T14:13:08;7.53;;;3.70;;
55290;SDS011;41155;39.768;2.712;2023-05-03T14:15:40;8.38;;;3.80;;
55290;SDS011;41155;39.768;2.712;2023-05-03T14:18:07;6.78;;;3.17;;
55290;SDS011;41155;39.768;2.712;2023-05-03T14:20:33;5.35;;;2.72;;
55290;SDS011;41155;39.768;2.712;2023-05-03T14:23:02;6.38;;;3.35;;
55290;SDS011;41155;39.768;2.712;2023-05-03T14:25:28;12.30;;;2.85;;
55290;SDS011;41155;39.768;2.712;2023-05-03T14:27:55;11.98;;;2.90;;
55290;SDS011;41155;39.768;2.712;2023-05-03T14:30:20;7.65;;;3.33;;
55290;SDS011;41155;39.768;2.712;2023-05-03T14:32:46;7.35;;;2.67;;
55290;SDS011;41155;39.768;2.712;2023-05-03T14:35:13;8.50;;;3.00;;
55290;SDS011;41155;39.768;2.712;2023-05-03T14:37:45;7.40;;;2.53;;
55290;SDS011;41155;39.768;2.712;2023-05-03T14:40:10;10.05;;;3.60;;
55290;SDS011;41155;39.768;2.712;2023-05-03T14:42:37;12.35;;;3.03;;
55290;SDS011;41155;39.768;2.712;2023-05-03T14:45:03;7.63;;;3.13;;
55290;SDS011;41155;39.768;2.712;2023-05-03T14:47:30;5.38;;;2.75;;
55290;SDS011;41155;39.768;2.712;2023-05-03T14:49:55;9.15;;;3.08;;
55290;SDS011;41155;39.768;2.712;2023-05-03T14:52:21;6.85;;;3.25;;
55290;SDS011;41155;39.768;2.712;2023-05-03T14:54:46;7.43;;;2.97;;
55290;SDS011;41155;39.768;2.712;2023-05-03T14:57:12;6.68;;;2.72;;
55290;SDS011;41155;39.768;2.712;2023-05-03T14:59:37;7.40;;;3.92;;
55290;SDS011;41155;39.768;2.712;2023-05-03T15:02:03;8.07;;;2.80;;
55290;SDS011;41155;39.768;2.712;2023-05-03T15:04:28;12.18;;;3.00;;
55290;SDS011;41155;39.768;2.712;2023-05-03T15:06:58;6.63;;;2.97;;
55290;SDS011;41155;39.768;2.712;2023-05-03T15:09:24;7.00;;;2.85;;